Time;durP1;ratioP1;P1;durP2;ratioP2;P2;SDS_P1;SDS_P2;PMS_P1;PMS_P2;Temp;Humidity;BMP_temperature;BMP_pressure;BME280_temperature;BME280_humidity;BME280_pressure;Samples;Min_cycle;Max_cycle;Signal;HPM_P1;HPM_P2
2023/08/07 00:04:35;;;;;;;5.60;2.40;;;;;;;14.26;95.62;97306.58;436404;1253;97951;-41
2023/08/07 00:24:47;;;;;;;2.70;2.40;;;;;;;14.28;95.34;97294.96;436268;1254;97861;-41
2023/08/07 00:55:08;;;;;;;3.50;2.30;;;;;;;14.25;95.57;97269.65;436462;1261;97880;-41
2023/08/07 01:05:16;;;;;;;2.60;2.40;;;;;;;14.34;95.52;97259.24;436421;1253;106772;-40
2023/08/07 01:25:35;;;;;;;2.40;2.20;;;;;;;14.41;95.23;97244.95;436421;1253;110671;-41
2023/08/07 01:35:40;;;;;;;;;;;;;;;14.32;94.95;97246.94;436276;1254;109547;-41
2023/08/07 01:45:45;;;;;;;2.00;1.80;;;;;;;14.34;95.19;97243.61;436848;1246;97124;-40
2023/08/07 01:55:51;;;;;;;6.00;2.20;;;;;;;14.29;94.77;97244.39;435841;1254;107024;-40
2023/08/07 02:05:57;;;;;;;4.70;2.10;;;;;;;14.12;94.37;97245.73;435523;1255;98002;-41
2023/08/07 02:26:10;;;;;;;2.80;2.60;;;;;;;13.87;94.65;97258.36;436174;1254;107708;-41
2023/08/07 02:36:16;;;;;;;2.50;2.20;;;;;;;13.86;94.59;97264.27;435505;1251;97876;-41
2023/08/07 02:46:23;;;;;;;2.60;2.00;;;;;;;13.94;94.81;97274.11;435689;1254;109412;-41
2023/08/07 02:56:30;;;;;;;4.10;2.70;;;;;;;14.02;94.71;97273.06;435692;1254;97841;-40
2023/08/07 03:06:37;;;;;;;5.70;3.20;;;;;;;14.06;94.64;97258.98;435580;1250;110338;-40
2023/08/07 03:16:45;;;;;;;6.90;4.30;;;;;;;14.12;94.61;97263.41;435665;1254;108457;-41
2023/08/07 03:26:52;;;;;;;4.50;3.30;;;;;;;14.08;94.54;97256.40;435413;1251;97985;-41
2023/08/07 03:37:00;;;;;;;5.50;3.30;;;;;;;14.06;94.40;97266.37;435608;1253;109575;-40
2023/08/07 03:47:07;;;;;;;3.70;2.50;;;;;;;14.06;94.40;97285.70;435690;1250;97881;-40
2023/08/07 03:57:14;;;;;;;4.70;2.40;;;;;;;14.10;94.12;97296.19;436561;1249;109464;-41
2023/08/07 04:07:21;;;;;;;2.80;2.60;;;;;;;14.24;94.17;97316.65;435776;1254;108229;-41
2023/08/07 04:17:28;;;;;;;3.80;2.10;;;;;;;14.53;93.56;97324.30;435688;1250;97847;-40
2023/08/07 04:27:36;;;;;;;4.80;2.70;;;;;;;14.53;93.32;97331.47;435621;1254;109348;-43
2023/08/07 04:37:43;;;;;;;3.60;3.10;;;;;;;14.67;93.38;97335.91;435764;1250;97565;-40
2023/08/07 04:47:48;;;;;;;4.80;3.30;;;;;;;14.60;93.31;97338.35;435630;1254;110148;-39
2023/08/07 04:57:56;;;;;;;6.60;2.80;;;;;;;14.73;93.20;97337.38;435577;1254;107709;-41
2023/08/07 05:18:09;;;;;;;2.80;2.60;;;;;;;15.04;92.73;97350.66;435715;1253;110781;-40
2023/08/07 05:28:16;;;;;;;10.20;3.60;;;;;;;15.14;93.38;97348.90;435711;1251;107919;-41
2023/08/07 05:38:24;;;;;;;6.50;3.60;;;;;;;15.44;93.10;97350.88;435485;1253;97893;-40
2023/08/07 05:58:36;;;;;;;6.20;2.80;;;;;;;16.62;92.54;97362.83;435836;1251;96645;-40
2023/08/07 06:08:42;;;;;;;3.60;3.00;;;;;;;16.45;91.67;97377.77;435687;1250;109608;-41
2023/08/07 06:18:49;;;;;;;4.00;2.80;;;;;;;16.14;91.15;97386.17;435658;1254;109461;-41
2023/08/07 06:39:02;;;;;;;8.60;4.90;;;;;;;15.78;91.44;97402.17;435764;1253;109935;-41
2023/08/07 06:59:15;;;;;;;3.40;3.10;;;;;;;15.80;91.82;97411.79;435758;1253;97873;-42
2023/08/07 07:09:21;;;;;;;5.00;4.10;;;;;;;15.69;91.72;97412.83;435742;1253;108645;-41
2023/08/07 07:19:26;;;;;;;3.00;2.00;;;;;;;15.45;91.48;97425.45;435689;1253;98186;-41
2023/08/07 07:29:33;;;;;;;3.10;1.80;;;;;;;15.16;91.13;97441.65;435699;1253;111381;-40
2023/08/07 07:39:39;;;;;;;2.90;1.30;;;;;;;15.07;91.34;97448.10;435552;1254;108514;-40
2023/08/07 07:49:45;;;;;;;2.40;1.70;;;;;;;14.88;91.15;97448.78;435726;1253;97480;-40
2023/08/07 07:59:52;;;;;;;1.40;1.10;;;;;;;15.00;91.27;97451.65;435607;1253;109977;-42
2023/08/07 08:20:07;;;;;;;2.40;2.20;;;;;;;15.51;91.03;97470.22;435697;1251;98490;-41
2023/08/07 08:30:13;;;;;;;3.10;2.00;;;;;;;15.85;91.14;97476.13;435765;1251;106498;-40
2023/08/07 08:50:27;;;;;;;2.70;2.00;;;;;;;16.70;90.68;97480.15;435595;1264;111174;-41
2023/08/07 09:00:35;;;;;;;5.70;2.20;;;;;;;16.80;89.65;97493.95;435772;1253;107763;-40
2023/08/07 09:10:41;;;;;;;3.30;2.10;;;;;;;16.58;89.47;97509.42;435660;1251;97953;-40
2023/08/07 09:30:55;;;;;;;4.00;2.80;;;;;;;16.24;89.48;97516.35;435842;1251;97870;-42
2023/08/07 09:51:12;;;;;;;5.40;3.00;;;;;;;16.01;89.72;97535.03;435418;1253;108534;-41
2023/08/07 10:01:20;;;;;;;3.00;2.40;;;;;;;16.33;90.30;97532.95;435633;1251;97918;-41
2023/08/07 10:41:48;;;;;;;;;;;;;;;16.80;89.61;97565.92;435682;1253;107909;-40
2023/08/07 11:02:03;;;;;;;5.00;2.90;;;;;;;17.14;89.46;97576.45;435693;1253;110270;-41
2023/08/07 11:12:25;;;;;;;3.30;2.00;;;;;;;17.81;89.58;97577.20;435531;1253;110411;-41
2023/08/07 11:22:33;;;;;;;5.80;2.50;;;;;;;18.42;89.26;97581.22;435674;1253;97501;-41
2023/08/07 11:32:37;;;;;;;4.80;3.00;;;;;;;18.86;88.35;97581.40;435552;1251;110793;-41
2023/08/07 11:42:44;;;;;;;3.80;2.90;;;;;;;19.10;87.62;97583.63;435629;1253;107649;-40
2023/08/07 11:52:52;;;;;;;3.90;3.00;;;;;;;19.70;87.14;97585.05;435645;1253;97494;-42
2023/08/07 12:02:58;;;;;;;5.00;2.30;;;;;;;19.97;86.30;97596.31;435767;1249;110156;-41
2023/08/07 12:13:09;;;;;;;4.60;2.20;;;;;;;19.43;84.64;97602.27;435656;1253;110936;-41
2023/08/07 12:33:23;;;;;;;5.10;2.50;;;;;;;19.54;84.33;97607.25;435280;1250;531083;-41
2023/08/07 12:43:30;;;;;;;4.10;3.00;;;;;;;19.97;82.68;97606.77;435447;1251;97136;-41
2023/08/07 12:53:39;;;;;;;4.00;2.30;;;;;;;19.69;81.44;97608.14;435926;1251;111463;-42
2023/08/07 13:13:53;;;;;;;2.80;2.50;;;;;;;18.55;80.84;97631.55;435524;1252;97989;-41
2023/08/07 13:23:59;;;;;;;4.60;2.80;;;;;;;19.10;81.30;97623.20;435515;1249;109494;-41
2023/08/07 13:34:07;;;;;;;3.20;2.60;;;;;;;19.32;80.83;97622.42;435708;1253;97902;-41
2023/08/07 13:44:15;;;;;;;4.40;2.00;;;;;;;19.36;79.61;97630.58;435511;1253;110152;-40
2023/08/07 13:54:22;;;;;;;5.00;2.20;;;;;;;19.61;76.53;97630.73;435571;1253;108766;-41
2023/08/07 14:04:29;;;;;;;4.30;2.70;;;;;;;19.72;74.60;97634.58;435459;1250;97967;-41
2023/08/07 14:14:38;;;;;;;6.30;2.70;;;;;;;19.70;73.11;97645.84;435478;1251;110328;-41
2023/08/07 14:24:45;;;;;;;3.00;2.00;;;;;;;19.93;72.74;97650.73;435648;1251;107857;-42
2023/08/07 14:34:53;;;;;;;3.90;1.70;;;;;;;19.71;72.07;97663.03;435513;1251;97881;-42
2023/08/07 14:45:00;;;;;;;4.00;2.50;;;;;;;19.94;70.57;97667.19;435643;1251;111498;-42
2023/08/07 14:55:09;;;;;;;2.70;1.50;;;;;;;19.69;69.67;97685.54;435708;1253;107586;-41
2023/08/07 15:05:16;;;;;;;3.60;2.10;;;;;;;19.03;68.50;97701.06;435582;1253;97917;-42
2023/08/07 15:15:23;;;;;;;1.90;1.80;;;;;;;18.74;69.43;97710.27;435527;1254;109914;-41
2023/08/07 15:25:30;;;;;;;2.40;2.10;;;;;;;18.80;70.15;97701.92;435445;1253;108469;-42
2023/08/07 15:35:38;;;;;;;1.70;1.60;;;;;;;18.82;71.12;97696.34;435590;1253;97439;-41
2023/08/07 15:55:56;;;;;;;4.70;2.30;;;;;;;18.45;71.20;97712.61;435392;1253;108255;-41
2023/08/07 16:06:03;;;;;;;2.90;2.40;;;;;;;18.20;71.67;97725.44;435529;1253;97967;-41
2023/08/07 16:16:10;;;;;;;4.70;2.90;;;;;;;18.03;72.05;97741.23;435549;1251;110358;-40
2023/08/07 16:26:18;;;;;;;2.70;1.60;;;;;;;17.86;72.10;97772.42;435543;1256;107385;-42
2023/08/07 16:36:25;;;;;;;2.20;1.90;;;;;;;17.60;70.70;97802.11;435502;1253;98005;-41
2023/08/07 16:46:32;;;;;;;6.30;3.40;;;;;;;17.04;70.74;97817.41;435532;1251;110749;-40
2023/08/07 16:56:40;;;;;;;6.00;3.70;;;;;;;16.49;72.19;97814.98;435575;1253;108779;-41
2023/08/07 17:06:47;;;;;;;5.80;2.10;;;;;;;16.39;73.42;97811.98;435598;1251;97870;-41
2023/08/07 17:16:54;;;;;;;3.80;1.90;;;;;;;16.50;74.11;97817.39;435538;1253;111626;-41
2023/08/07 17:27:02;;;;;;;2.00;1.80;;;;;;;16.54;74.55;97831.58;435574;1254;108604;-42
2023/08/07 17:37:10;;;;;;;3.80;2.40;;;;;;;16.46;75.50;97832.38;435606;1253;97955;-42
2023/08/07 17:47:17;;;;;;;4.80;2.50;;;;;;;16.40;76.14;97842.13;435604;1253;110121;-41
2023/08/07 17:57:23;;;;;;;2.90;1.90;;;;;;;16.33;76.74;97853.46;435627;1263;108101;-41
2023/08/07 18:17:37;;;;;;;5.00;2.60;;;;;;;16.07;77.46;97874.51;435699;1251;108870;-41
2023/08/07 18:37:52;;;;;;;5.10;3.10;;;;;;;15.62;78.54;97890.73;435494;1253;110412;-42
2023/08/07 19:08:12;;;;;;;9.60;4.70;;;;;;;15.36;79.83;97902.79;435207;1263;107904;-41
2023/08/07 19:28:24;;;;;;;4.00;3.00;;;;;;;15.39;80.54;97926.16;435429;1251;110907;-41
2023/08/07 19:38:31;;;;;;;4.40;2.60;;;;;;;15.51;80.58;97929.21;435458;1253;108196;-41
2023/08/07 19:48:36;;;;;;;8.70;3.20;;;;;;;15.47;80.75;97948.52;435442;1251;97501;-41
2023/08/07 19:58:44;;;;;;;4.40;3.00;;;;;;;15.32;80.86;97955.89;435554;1254;108238;-41
2023/08/07 20:29:03;;;;;;;2.70;1.60;;;;;;;14.74;81.79;97972.96;435497;1251;108004;-41
2023/08/07 20:39:13;;;;;;;1.90;1.30;;;;;;;14.72;82.07;97978.71;435419;1253;97940;-41
2023/08/07 20:49:22;;;;;;;1.40;1.00;;;;;;;14.60;82.51;97981.88;435538;1257;108276;-42
2023/08/07 20:59:31;;;;;;;4.00;1.10;;;;;;;14.57;82.74;97987.54;435598;1254;96628;-42
2023/08/07 21:09:38;;;;;;;1.00;0.70;;;;;;;14.64;82.85;98000.17;435618;1253;110181;-41
2023/08/07 21:29:53;;;;;;;2.70;1.40;;;;;;;14.61;83.07;98010.51;435845;1255;97940;-42
2023/08/07 21:39:59;;;;;;;1.30;0.90;;;;;;;14.60;83.14;98029.20;435794;1254;108174;-41
2023/08/07 22:00:14;;;;;;;4.20;1.10;;;;;;;14.64;83.41;98043.50;435824;1251;109928;-41
2023/08/07 22:20:28;;;;;;;1.40;0.90;;;;;;;14.63;83.65;98066.97;435649;1250;98495;-42
2023/08/07 22:30:35;;;;;;;1.80;0.60;;;;;;;14.71;83.49;98077.23;435688;1263;110517;-42
2023/08/07 22:40:42;;;;;;;2.00;0.90;;;;;;;14.70;83.50;98083.14;435639;1253;107276;-41
2023/08/07 22:50:49;;;;;;;1.70;0.70;;;;;;;14.55;83.42;98087.95;435598;1251;97858;-41
2023/08/07 23:00:56;;;;;;;1.40;0.80;;;;;;;14.51;83.50;98098.98;435635;1254;108098;-41
2023/08/07 23:11:03;;;;;;;1.20;0.80;;;;;;;14.47;83.48;98098.02;435566;1251;96625;-41
2023/08/07 23:21:10;;;;;;;5.80;1.60;;;;;;;14.31;83.67;98107.52;435518;1251;110738;-41
2023/08/07 23:31:17;;;;;;;5.70;1.50;;;;;;;14.13;83.65;98117.02;435614;1251;108439;-41
2023/08/07 23:41:25;;;;;;;2.70;1.00;;;;;;;14.09;83.37;98125.58;435602;1251;97889;-41
2023/08/07 23:51:32;;;;;;;2.00;0.80;;;;;;;14.00;83.28;98128.81;435470;1253;107301;-42
